Time;durP1;ratioP1;P1;durP2;ratioP2;P2;SDS_P1;SDS_P2;PMS_P1;PMS_P2;Temp;Humidity;BMP_temperature;BMP_pressure;BME280_temperature;BME280_humidity;BME280_pressure;Samples;Min_cycle;Max_cycle;Signal;HPM_P1;HPM_P2
2022/09/03 00:01:33;;;;;;;2.37;1.80;;;22.30;40.10;;;;;;20569;6886;117844;-88
2022/09/03 00:03:58;;;;;;;1.60;1.50;;;21.80;40.80;;;;;;20570;6885;117358;-90
2022/09/03 00:06:30;;;;;;;1.58;1.48;;;21.70;40.80;;;;;;20411;6874;280388;-88
2022/09/03 00:08:58;;;;;;;1.43;1.40;;;22.00;41.10;;;;;;20360;6884;279539;-89
2022/09/03 00:11:22;;;;;;;2.00;1.90;;;22.30;41.00;;;;;;20345;6884;310888;-88
2022/09/03 00:13:54;;;;;;;2.50;2.30;;;22.30;41.20;;;;;;20535;6895;117707;-88
2022/09/03 00:16:20;;;;;;;2.70;2.53;;;22.40;41.00;;;;;;20339;6880;317857;-89
2022/09/03 00:18:47;;;;;;;3.93;3.73;;;22.40;41.00;;;;;;20574;6880;124222;-87
2022/09/03 00:21:11;;;;;;;4.10;3.60;;;22.20;41.10;;;;;;20563;6878;118067;-90
2022/09/03 00:23:37;;;;;;;2.97;2.78;;;21.90;41.50;;;;;;20564;6893;118875;-90
2022/09/03 00:26:12;;;;;;;2.45;2.25;;;21.60;41.80;;;;;;20385;6878;314870;-88
2022/09/03 00:28:41;;;;;;;2.17;2.07;;;21.80;42.30;;;;;;20552;6888;118917;-90
2022/09/03 00:31:11;;;;;;;2.70;2.50;;;21.70;42.20;;;;;;20328;6889;310364;-88
2022/09/03 00:33:37;;;;;;;2.43;2.33;;;21.90;42.30;;;;;;20270;6870;117289;-88
2022/09/03 00:36:05;;;;;;;2.20;2.10;;;21.80;42.20;;;;;;20424;6870;283348;-88
2022/09/03 00:38:31;;;;;;;2.50;2.30;;;21.90;42.40;;;;;;20418;6870;278400;-88
2022/09/03 00:41:06;;;;;;;2.50;2.28;;;22.20;42.20;;;;;;20401;6870;308057;-90
2022/09/03 00:43:45;;;;;;;2.57;2.00;;;22.40;41.90;;;;;;20416;6874;280137;-88
2022/09/03 00:46:18;;;;;;;2.10;1.90;;;22.50;41.70;;;;;;20401;6874;280082;-88
2022/09/03 00:48:53;;;;;;;1.90;1.80;;;22.70;40.90;;;;;;20373;6874;339924;-88
2022/09/03 00:51:19;;;;;;;2.95;1.73;;;22.80;40.40;;;;;;20412;6874;309408;-88
2022/09/03 00:54:14;;;;;;;1.80;1.70;;;22.90;40.40;;;;;;20382;6874;280595;-90
2022/09/03 00:56:59;;;;;;;2.10;1.85;;;23.00;40.00;;;;;;20384;6874;306320;-87
2022/09/03 00:59:31;;;;;;;2.33;1.90;;;23.00;39.60;;;;;;20563;6874;117218;-88
2022/09/03 01:02:00;;;;;;;2.03;1.92;;;22.70;40.20;;;;;;20383;6874;283064;-88
2022/09/03 01:04:38;;;;;;;1.63;1.63;;;22.70;40.70;;;;;;20608;6874;121686;-91
2022/09/03 01:07:08;;;;;;;2.00;1.90;;;22.10;41.40;;;;;;20588;6874;117514;-87
2022/09/03 01:09:47;;;;;;;3.33;1.83;;;22.10;41.40;;;;;;20591;6874;117409;-89
2022/09/03 01:12:32;;;;;;;3.13;1.90;;;21.90;41.90;;;;;;20621;6874;122544;-87
2022/09/03 01:15:00;;;;;;;2.20;2.00;;;21.70;42.20;;;;;;20402;6873;310573;-90
2022/09/03 01:17:29;;;;;;;2.00;1.90;;;21.90;42.30;;;;;;20592;6874;121561;-88
2022/09/03 01:20:19;;;;;;;2.03;1.90;;;21.70;43.30;;;;;;20539;6901;118091;-87
2022/09/03 01:23:11;;;;;;;1.80;1.73;;;21.70;42.50;;;;;;20367;6881;310703;-88
2022/09/03 01:26:17;;;;;;;2.23;1.80;;;21.80;43.00;;;;;;20576;6893;118016;-87
2022/09/03 01:28:45;;;;;;;2.27;2.00;;;21.80;43.50;;;;;;20341;6893;280862;-89
2022/09/03 01:31:32;;;;;;;2.17;2.07;;;21.90;43.00;;;;;;20554;6893;123242;-89
2022/09/03 01:34:23;;;;;;;3.23;2.03;;;21.80;42.90;;;;;;20565;6888;117742;-88
2022/09/03 01:37:13;;;;;;;2.00;1.90;;;21.60;43.40;;;;;;20398;6873;311325;-87
2022/09/03 01:40:06;;;;;;;2.20;2.00;;;22.10;42.80;;;;;;20359;6888;313335;-87
2022/09/03 01:42:53;;;;;;;2.20;2.10;;;21.90;42.70;;;;;;20576;6885;117568;-90
2022/09/03 01:45:43;;;;;;;2.40;1.87;;;21.90;42.70;;;;;;20342;6892;290097;-87
2022/09/03 01:48:31;;;;;;;2.08;1.92;;;22.20;43.00;;;;;;20352;6890;311443;-87
2022/09/03 01:51:07;;;;;;;2.10;1.90;;;22.20;42.90;;;;;;20608;6869;119331;-88
2022/09/03 01:53:39;;;;;;;2.07;1.97;;;22.00;42.90;;;;;;20619;6869;121265;-88
2022/09/03 01:56:08;;;;;;;2.10;2.00;;;21.60;43.10;;;;;;20407;6869;309495;-88
2022/09/03 01:58:36;;;;;;;1.80;1.70;;;21.70;43.10;;;;;;20402;6869;309881;-88
2022/09/03 02:01:02;;;;;;;2.10;1.90;;;22.00;42.30;;;;;;20374;6869;279817;-89
2022/09/03 02:03:34;;;;;;;2.13;2.03;;;22.30;42.10;;;;;;20626;6869;121302;-87
2022/09/03 02:05:59;;;;;;;1.90;1.80;;;22.10;42.10;;;;;;20626;6869;122087;-89
2022/09/03 02:08:25;;;;;;;1.63;1.60;;;21.80;42.50;;;;;;20650;6869;117593;-88
2022/09/03 02:10:53;;;;;;;1.53;1.43;;;21.40;43.20;;;;;;20611;6869;147901;-87
2022/09/03 02:13:18;;;;;;;2.10;1.90;;;21.40;43.20;;;;;;20422;6869;309456;-88
2022/09/03 02:15:47;;;;;;;2.53;2.15;;;21.60;43.20;;;;;;20422;6869;309801;-88
2022/09/03 02:18:24;;;;;;;2.60;2.20;;;21.90;42.70;;;;;;20420;6869;279795;-90
2022/09/03 02:20:50;;;;;;;2.23;2.10;;;22.00;42.20;;;;;;20343;6869;119616;-87
2022/09/03 02:23:16;;;;;;;1.90;1.80;;;22.00;42.20;;;;;;20420;6869;279533;-87
2022/09/03 02:25:41;;;;;;;2.15;2.05;;;22.00;42.10;;;;;;20435;6867;310549;-87
2022/09/03 02:28:07;;;;;;;3.60;2.20;;;22.20;42.50;;;;;;20409;6868;313560;-87
2022/09/03 02:30:33;;;;;;;1.97;1.80;;;22.20;42.40;;;;;;20687;6869;118078;-89
2022/09/03 02:32:59;;;;;;;2.55;1.95;;;22.10;42.50;;;;;;20457;6869;343219;-88
2022/09/03 02:35:25;;;;;;;2.20;2.10;;;22.10;42.50;;;;;;20649;6869;117493;-88
2022/09/03 02:37:50;;;;;;;1.93;1.80;;;22.00;42.80;;;;;;20440;6869;309354;-89
2022/09/03 02:40:16;;;;;;;2.10;2.00;;;22.00;43.40;;;;;;20669;6869;117743;-88
2022/09/03 02:42:42;;;;;;;2.07;1.97;;;21.80;43.20;;;;;;20393;6869;279695;-90
2022/09/03 02:45:11;;;;;;;1.87;1.77;;;21.90;43.30;;;;;;20640;6869;124070;-87
2022/09/03 02:47:36;;;;;;;2.33;2.13;;;21.70;43.20;;;;;;20619;6869;121098;-88
2022/09/03 02:50:02;;;;;;;2.28;2.17;;;21.40;43.60;;;;;;20432;6869;284159;-90
2022/09/03 02:52:27;;;;;;;3.00;1.87;;;21.40;44.00;;;;;;20640;6869;124600;-89
2022/09/03 02:54:53;;;;;;;2.03;1.92;;;21.30;43.90;;;;;;20406;6869;309659;-88
2022/09/03 02:57:18;;;;;;;2.10;2.00;;;21.40;44.20;;;;;;20646;6869;117590;-89
2022/09/03 02:59:45;;;;;;;3.30;2.40;;;21.20;44.10;;;;;;20420;6869;309361;-87
2022/09/03 03:02:11;;;;;;;2.80;2.60;;;21.30;44.50;;;;;;20640;6869;117461;-88
2022/09/03 03:04:39;;;;;;;2.10;2.00;;;21.20;44.50;;;;;;20622;6869;118769;-87
2022/09/03 03:07:04;;;;;;;3.37;2.53;;;20.90;44.70;;;;;;20425;6869;312946;-88
2022/09/03 03:09:30;;;;;;;2.73;2.63;;;21.00;45.20;;;;;;20640;6869;117445;-87
2022/09/03 03:11:56;;;;;;;2.60;2.40;;;20.90;45.00;;;;;;20428;6869;308866;-89
2022/09/03 03:14:21;;;;;;;2.72;2.33;;;21.00;45.70;;;;;;20434;6869;312810;-88
2022/09/03 03:16:47;;;;;;;2.70;2.50;;;21.20;44.60;;;;;;20625;6869;120810;-88
2022/09/03 03:19:12;;;;;;;2.40;2.30;;;21.10;44.60;;;;;;20633;6869;117831;-88
2022/09/03 03:21:39;;;;;;;2.50;2.30;;;20.80;44.90;;;;;;20428;6869;308899;-88
2022/09/03 03:24:05;;;;;;;2.50;2.30;;;20.90;45.20;;;;;;20638;6869;118983;-89
2022/09/03 03:26:30;;;;;;;2.30;2.20;;;20.80;45.10;;;;;;20642;6869;117330;-88
2022/09/03 03:28:56;;;;;;;2.70;2.40;;;20.60;45.30;;;;;;20408;6869;309050;-90
2022/09/03 03:31:21;;;;;;;2.30;2.20;;;20.70;45.30;;;;;;20638;6869;117579;-88
2022/09/03 03:33:53;;;;;;;3.40;2.40;;;20.70;45.20;;;;;;20427;6869;308475;-88
2022/09/03 03:36:19;;;;;;;2.22;2.12;;;20.90;45.40;;;;;;20416;6869;308856;-89
2022/09/03 03:38:44;;;;;;;2.67;2.47;;;21.20;45.20;;;;;;20625;6868;124733;-88
2022/09/03 03:41:14;;;;;;;2.60;2.40;;;21.10;45.20;;;;;;20444;6869;280180;-89
2022/09/03 03:43:39;;;;;;;2.45;2.28;;;21.50;45.00;;;;;;20414;6869;338094;-87
2022/09/03 03:46:05;;;;;;;2.40;2.30;;;21.50;45.00;;;;;;20642;6869;117709;-87
2022/09/03 03:48:31;;;;;;;2.45;2.35;;;21.40;44.90;;;;;;20427;6869;318327;-89
2022/09/03 03:50:56;;;;;;;2.30;2.20;;;21.40;45.20;;;;;;20365;6869;289054;-87
2022/09/03 03:53:22;;;;;;;2.43;2.33;;;21.80;44.50;;;;;;20415;6869;319772;-87
2022/09/03 03:55:53;;;;;;;3.67;2.70;;;21.70;44.90;;;;;;20580;6869;117390;-90
2022/09/03 03:58:18;;;;;;;2.70;2.30;;;21.60;44.50;;;;;;20416;6869;309440;-88
2022/09/03 04:00:44;;;;;;;2.20;2.10;;;21.70;44.50;;;;;;20410;6869;309685;-89
2022/09/03 04:03:09;;;;;;;2.42;2.22;;;21.80;44.40;;;;;;20427;6869;342732;-89
2022/09/03 04:05:35;;;;;;;2.43;2.30;;;22.00;44.20;;;;;;20645;6869;117880;-88
2022/09/03 04:08:01;;;;;;;3.20;2.07;;;21.80;44.30;;;;;;20655;6869;118640;-89
2022/09/03 04:10:26;;;;;;;2.37;2.28;;;21.40;44.70;;;;;;20501;6869;277793;-93
2022/09/03 04:12:54;;;;;;;3.03;2.60;;;21.50;45.00;;;;;;20402;6869;307996;-91
2022/09/03 04:15:17;;;;;;;2.80;2.30;;;21.70;44.70;;;;;;20637;6869;67969;-94
2022/09/03 04:17:44;;;;;;;2.70;2.50;;;21.70;44.70;;;;;;20512;6869;338955;-94
2022/09/03 04:20:10;;;;;;;2.57;2.30;;;21.70;44.20;;;;;;20710;6869;117450;-93
2022/09/03 04:22:35;;;;;;;3.77;2.80;;;21.60;44.50;;;;;;20709;6869;117829;-90
2022/09/03 04:25:01;;;;;;;2.70;2.60;;;21.30;44.80;;;;;;20613;6869;118071;-88
2022/09/03 04:27:26;;;;;;;2.70;2.60;;;21.10;45.10;;;;;;20435;6869;279321;-92
2022/09/03 04:29:52;;;;;;;3.00;2.70;;;21.20;45.40;;;;;;20642;6869;117962;-90
2022/09/03 04:35:03;;;;;;;2.70;2.60;;;21.40;45.50;;;;;;20668;6869;118364;-90
2022/09/03 04:37:29;;;;;;;2.57;2.37;;;21.30;45.30;;;;;;20377;6869;338151;-91
2022/09/03 04:39:55;;;;;;;2.37;2.17;;;21.40;45.30;;;;;;20636;6869;117969;-88
2022/09/03 04:42:20;;;;;;;2.80;2.60;;;21.30;45.20;;;;;;20641;6869;117384;-88
2022/09/03 04:44:49;;;;;;;2.72;2.53;;;21.20;45.50;;;;;;20401;6869;279325;-89
2022/09/03 04:47:12;;;;;;;2.70;2.60;;;21.30;45.60;;;;;;20625;6869;116647;-91
2022/09/03 04:49:38;;;;;;;2.53;2.43;;;21.30;45.50;;;;;;20637;6868;118007;-88
2022/09/03 04:52:04;;;;;;;2.77;2.63;;;20.90;45.90;;;;;;20610;6869;118033;-91
2022/09/03 04:54:30;;;;;;;3.15;2.95;;;21.20;45.70;;;;;;20435;6869;342946;-92
2022/09/03 04:56:57;;;;;;;2.70;2.60;;;21.20;45.70;;;;;;20551;6659;275221;-88
2022/09/03 04:59:45;;;;;;;3.30;3.00;;;21.50;45.30;;;;;;20502;6659;306430;-94
2022/09/03 05:02:13;;;;;;;3.20;2.90;;;21.80;45.20;;;;;;20817;6785;68447;-91
2022/09/03 05:04:57;;;;;;;3.10;2.83;;;21.70;45.10;;;;;;20480;6819;118297;-88
2022/09/03 05:07:37;;;;;;;;;;;;;;;;;;;;;
2022/09/03 05:10:27;;;;;;;3.17;2.87;;;21.50;45.60;;;;;;20860;6673;67295;-94
2022/09/03 05:12:56;;;;;;;5.83;2.90;;;21.40;45.60;;;;;;20636;6691;284616;-89
2022/09/03 05:15:36;;;;;;;2.60;2.50;;;21.50;46.50;;;;;;20687;6691;75040;-88
2022/09/03 05:18:20;;;;;;;2.37;2.20;;;21.40;45.70;;;;;;20813;6676;67862;-89
2022/09/03 05:23:57;;;;;;;;;;;;;;;;;;;;;
2022/09/03 05:26:29;;;;;;;2.75;2.55;;;21.20;46.50;;;;;;20616;6676;331912;-90
2022/09/03 05:29:23;;;;;;;;;;;;;;;;;;;;;
2022/09/03 05:31:50;;;;;;;2.70;2.60;;;21.40;45.90;;;;;;19561;6790;334652;-92
2022/09/03 05:34:27;;;;;;;2.97;2.70;;;21.80;45.90;;;;;;20352;6793;341637;-90
2022/09/03 05:37:02;;;;;;;3.00;2.80;;;21.80;45.70;;;;;;20474;6796;308075;-92
2022/09/03 05:39:38;;;;;;;3.33;3.10;;;21.90;45.40;;;;;;20511;6788;279641;-90
2022/09/03 05:42:15;;;;;;;3.23;2.50;;;22.10;45.40;;;;;;20639;6815;117498;-90
2022/09/03 05:44:51;;;;;;;2.87;2.67;;;21.90;45.50;;;;;;20411;6792;309916;-89
2022/09/03 05:47:26;;;;;;;3.00;2.70;;;21.90;45.80;;;;;;20585;6759;314142;-88
2022/09/03 05:50:01;;;;;;;2.90;2.70;;;22.10;45.90;;;;;;20574;6819;279238;-88
2022/09/03 05:52:37;;;;;;;3.10;2.90;;;22.20;45.80;;;;;;20740;6779;123525;-91
2022/09/03 05:55:13;;;;;;;2.83;2.60;;;22.00;45.80;;;;;;20602;6785;118258;-91
2022/09/03 05:57:51;;;;;;;3.20;2.90;;;21.70;46.30;;;;;;20770;6779;121405;-88
2022/09/03 06:00:28;;;;;;;2.60;2.50;;;21.40;46.70;;;;;;20793;6764;116982;-88
2022/09/03 06:03:04;;;;;;;3.42;2.85;;;21.20;47.00;;;;;;20517;6781;337040;-89
2022/09/03 06:05:42;;;;;;;2.90;2.70;;;21.40;47.00;;;;;;20615;6788;119582;-89
2022/09/03 06:08:17;;;;;;;3.03;2.70;;;21.40;47.00;;;;;;20297;6760;307614;-88
2022/09/03 06:10:56;;;;;;;2.95;2.85;;;21.60;47.30;;;;;;20437;6774;341954;-89
2022/09/03 06:13:32;;;;;;;3.08;2.87;;;21.90;46.60;;;;;;20566;6776;336387;-88
2022/09/03 06:16:07;;;;;;;2.80;2.60;;;22.20;45.90;;;;;;20282;6776;315317;-88
2022/09/03 06:18:54;;;;;;;;;;;;;;;;;;;;;
2022/09/03 06:24:55;;;;;;;3.50;2.70;;;22.70;44.80;;;;;;20892;6633;119105;-91
2022/09/03 06:27:31;;;;;;;2.90;2.70;;;22.30;45.10;;;;;;20646;6738;119743;-90
2022/09/03 06:30:07;;;;;;;2.70;2.60;;;22.00;45.70;;;;;;20730;6772;117376;-86
2022/09/03 06:32:49;;;;;;;2.50;2.40;;;21.80;46.20;;;;;;20828;6752;118605;-87
2022/09/03 06:35:22;;;;;;;3.10;2.90;;;21.60;46.40;;;;;;20696;6752;121998;-86
2022/09/03 06:37:59;;;;;;;2.90;2.70;;;21.50;46.60;;;;;;20840;6752;117221;-87
2022/09/03 06:40:33;;;;;;;2.90;2.70;;;21.50;46.90;;;;;;20577;6767;304059;-89
2022/09/03 06:43:10;;;;;;;2.90;2.70;;;21.80;47.40;;;;;;20795;6759;118454;-89
2022/09/03 06:45:44;;;;;;;3.00;2.80;;;22.00;47.10;;;;;;20808;6753;117666;-86
2022/09/03 06:48:21;;;;;;;3.13;2.93;;;22.20;46.80;;;;;;20559;6776;306792;-87
2022/09/03 06:50:56;;;;;;;2.90;2.80;;;22.20;46.80;;;;;;20830;6746;117247;-87
2022/09/03 06:53:35;;;;;;;3.00;2.80;;;22.30;46.60;;;;;;20858;6736;117936;-86
2022/09/03 06:56:07;;;;;;;3.03;2.83;;;22.20;46.80;;;;;;20626;6753;307186;-86
2022/09/03 06:58:44;;;;;;;3.00;2.80;;;22.70;47.00;;;;;;20627;6749;315441;-89
2022/09/03 07:01:29;;;;;;;;;;;;;;;;;;;;;
2022/09/03 07:03:55;;;;;;;5.33;3.17;;;22.90;46.60;;;;;;20808;6749;119917;-86
2022/09/03 07:06:31;;;;;;;3.20;3.00;;;22.80;46.60;;;;;;20625;6764;306991;-88
2022/09/03 07:09:06;;;;;;;4.67;3.10;;;22.80;46.80;;;;;;20725;6788;119150;-86
2022/09/03 07:11:45;;;;;;;3.53;3.20;;;22.60;46.80;;;;;;20619;6795;117951;-87
2022/09/03 07:14:17;;;;;;;3.07;2.87;;;22.40;47.20;;;;;;20503;6768;310273;-87
2022/09/03 07:16:53;;;;;;;2.90;2.80;;;22.50;47.70;;;;;;20872;6753;117150;-85
2022/09/03 07:19:28;;;;;;;3.67;2.80;;;22.50;47.50;;;;;;20817;6752;116410;-85
2022/09/03 07:22:14;;;;;;;4.00;2.70;;;22.10;48.10;;;;;;20798;6770;117104;-87
2022/09/03 07:24:46;;;;;;;2.90;2.43;;;22.10;48.10;;;;;;20640;6770;121127;-86
2022/09/03 07:27:16;;;;;;;2.70;2.60;;;22.00;48.30;;;;;;20852;6752;121035;-87
2022/09/03 07:29:53;;;;;;;2.50;2.40;;;21.90;48.30;;;;;;20890;6737;117183;-88
2022/09/03 07:32:45;;;;;;;3.30;3.00;;;21.90;48.40;;;;;;20876;6737;118676;-87
2022/09/03 07:35:14;;;;;;;;;;;;;;;;;;;;;
2022/09/03 07:37:44;;;;;;;3.10;2.90;;;22.20;48.90;;;;;;20458;6767;311778;-90
2022/09/03 07:40:20;;;;;;;3.10;3.00;;;22.60;48.30;;;;;;20625;6770;67350;-86
2022/09/03 07:43:00;;;;;;;3.10;2.90;;;22.60;48.10;;;;;;20360;6744;305713;-86
2022/09/03 07:45:33;;;;;;;2.90;2.80;;;22.70;49.10;;;;;;20692;6764;117411;-87
2022/09/03 07:48:18;;;;;;;;;;;;;;;;;;;;;
2022/09/03 07:50:46;;;;;;;3.30;3.00;;;22.90;48.40;;;;;;20575;6734;305753;-88
2022/09/03 07:53:21;;;;;;;3.22;2.92;;;23.30;47.90;;;;;;20643;6734;336185;-89
2022/09/03 07:56:06;;;;;;;3.60;3.40;;;23.60;47.40;;;;;;20894;6734;120600;-84
2022/09/03 07:58:43;;;;;;;3.47;3.20;;;23.70;48.00;;;;;;20666;6734;308117;-87
2022/09/03 08:01:18;;;;;;;3.33;3.03;;;23.60;47.20;;;;;;20705;6779;117530;-85
2022/09/03 08:03:55;;;;;;;3.17;3.07;;;23.60;47.20;;;;;;20758;6746;117109;-86
2022/09/03 08:06:30;;;;;;;3.23;3.03;;;23.40;47.60;;;;;;20810;6746;117179;-86
2022/09/03 08:09:06;;;;;;;3.20;3.00;;;23.30;47.80;;;;;;20718;6781;118070;-86
2022/09/03 08:11:44;;;;;;;2.90;2.80;;;23.20;47.80;;;;;;20833;6751;117182;-86
2022/09/03 08:14:20;;;;;;;3.53;3.23;;;23.10;47.70;;;;;;20351;6774;308771;-86
2022/09/03 08:16:58;;;;;;;3.20;3.00;;;23.90;46.60;;;;;;20615;6750;276445;-86
2022/09/03 08:19:42;;;;;;;;;;;;;;;;;;;;;
2022/09/03 08:22:09;;;;;;;2.90;2.70;;;24.20;45.60;;;;;;20674;6778;121332;-86
2022/09/03 08:24:45;;;;;;;3.10;2.87;;;24.30;45.40;;;;;;20526;6754;309062;-86
2022/09/03 08:27:24;;;;;;;3.87;3.30;;;24.30;45.40;;;;;;20369;6753;336238;-88
2022/09/03 08:29:57;;;;;;;2.87;2.77;;;24.70;44.70;;;;;;20685;6809;117334;-87
2022/09/03 08:32:33;;;;;;;3.00;2.90;;;24.80;44.80;;;;;;20280;6776;312648;-86
2022/09/03 08:35:09;;;;;;;3.03;2.90;;;25.00;44.80;;;;;;20446;6776;338880;-86
2022/09/03 08:37:45;;;;;;;2.80;2.70;;;25.40;44.80;;;;;;20772;6763;116758;-86
2022/09/03 08:43:19;;;;;;;3.33;2.60;;;25.60;45.10;;;;;;21373;6532;93190;-85
2022/09/03 08:45:45;;;;;;;4.07;3.80;;;25.70;45.20;;;;;;20450;6858;312577;-86
2022/09/03 08:48:12;;;;;;;3.20;3.00;;;25.90;43.60;;;;;;20447;6858;309410;-85
2022/09/03 08:50:40;;;;;;;3.13;2.93;;;26.30;43.10;;;;;;20375;6888;312682;-85
2022/09/03 08:53:25;;;;;;;3.50;2.70;;;26.60;43.10;;;;;;20582;6883;118291;-85
2022/09/03 08:55:51;;;;;;;2.83;2.60;;;26.60;43.10;;;;;;20396;6883;285926;-85
2022/09/03 08:58:20;;;;;;;2.75;2.55;;;26.90;42.50;;;;;;20394;6883;339875;-85
2022/09/03 09:00:49;;;;;;;3.33;3.05;;;27.30;41.30;;;;;;20392;6869;339007;-85
2022/09/03 09:03:47;;;;;;;2.87;2.63;;;27.50;41.10;;;;;;20635;6860;116585;-85
2022/09/03 09:06:20;;;;;;;2.90;2.70;;;27.40;41.50;;;;;;20473;6860;311011;-86
2022/09/03 09:09:15;;;;;;;3.00;2.80;;;27.60;40.60;;;;;;20439;6860;342058;-86
2022/09/03 09:11:58;;;;;;;2.50;2.40;;;27.90;41.50;;;;;;20725;6860;116764;-86
2022/09/03 09:14:34;;;;;;;2.53;2.37;;;27.90;41.30;;;;;;20747;6860;66427;-86
2022/09/03 09:17:23;;;;;;;3.27;3.03;;;27.70;41.60;;;;;;20710;6860;121142;-86
2022/09/03 09:20:01;;;;;;;2.90;2.70;;;27.70;42.20;;;;;;20525;6860;307791;-87
2022/09/03 09:22:29;;;;;;;2.50;2.40;;;28.10;41.50;;;;;;20724;6860;116401;-87
2022/09/03 09:24:55;;;;;;;2.40;2.30;;;28.50;40.60;;;;;;20666;6864;121024;-86
2022/09/03 09:27:20;;;;;;;2.20;2.10;;;28.50;40.00;;;;;;20495;6864;341545;-86
2022/09/03 09:29:46;;;;;;;2.42;2.25;;;28.70;37.80;;;;;;20519;6864;306996;-86
2022/09/03 09:32:12;;;;;;;2.50;2.40;;;28.90;38.40;;;;;;20511;6864;281809;-86
2022/09/03 09:34:37;;;;;;;2.27;2.17;;;29.00;38.30;;;;;;20713;6864;121566;-87
2022/09/03 09:37:03;;;;;;;2.30;2.20;;;28.80;38.30;;;;;;20661;6869;124177;-87
2022/09/03 09:39:28;;;;;;;2.47;2.37;;;28.40;39.00;;;;;;20721;6869;66936;-87
2022/09/03 09:42:10;;;;;;;2.50;2.40;;;28.20;39.70;;;;;;20507;6869;281506;-87
2022/09/03 09:44:39;;;;;;;3.83;2.50;;;28.30;39.30;;;;;;20688;6869;116527;-86
2022/09/03 09:47:05;;;;;;;2.47;2.30;;;28.20;39.70;;;;;;20444;6869;322758;-87
2022/09/03 09:49:30;;;;;;;2.40;2.30;;;28.40;39.50;;;;;;20655;6869;117715;-87
2022/09/03 09:52:15;;;;;;;2.50;2.40;;;28.00;39.50;;;;;;20661;6869;118142;-87
2022/09/03 09:54:40;;;;;;;2.87;2.67;;;28.10;39.50;;;;;;20622;6868;118925;-86
2022/09/03 09:57:08;;;;;;;2.40;2.30;;;27.80;40.20;;;;;;20647;6868;122346;-86
2022/09/03 09:59:33;;;;;;;2.60;2.40;;;27.80;40.10;;;;;;20414;6868;312854;-86
2022/09/03 10:02:08;;;;;;;2.57;2.37;;;28.70;38.90;;;;;;20438;6868;279343;-87
2022/09/03 10:04:32;;;;;;;2.40;2.30;;;28.60;38.70;;;;;;20436;6869;310312;-87
2022/09/03 10:06:57;;;;;;;2.57;2.27;;;29.20;39.10;;;;;;20636;6869;120262;-87
2022/09/03 10:09:27;;;;;;;2.60;2.50;;;29.30;37.20;;;;;;20433;6869;278709;-88
2022/09/03 10:12:04;;;;;;;2.50;2.40;;;29.30;37.20;;;;;;20638;6869;117290;-86
2022/09/03 10:14:34;;;;;;;2.55;2.45;;;29.20;37.50;;;;;;20411;6869;286451;-87
2022/09/03 10:17:10;;;;;;;2.60;2.50;;;29.20;37.30;;;;;;20619;6869;117266;-85
2022/09/03 10:19:38;;;;;;;2.43;2.33;;;29.10;38.10;;;;;;20631;6869;117638;-86
2022/09/03 10:22:16;;;;;;;2.60;2.40;;;28.90;39.20;;;;;;20414;6869;312343;-87
2022/09/03 10:24:59;;;;;;;2.33;2.23;;;29.00;37.80;;;;;;20608;6869;117646;-88
2022/09/03 10:27:25;;;;;;;2.90;2.70;;;28.90;38.00;;;;;;20647;6869;123476;-90
2022/09/03 10:29:50;;;;;;;2.47;2.28;;;28.60;39.30;;;;;;20672;6869;116827;-88
2022/09/03 10:32:57;;;;;;;2.55;2.45;;;28.40;39.00;;;;;;20430;6869;308317;-87
2022/09/03 10:35:32;;;;;;;3.30;3.10;;;28.60;39.20;;;;;;20648;6869;117439;-88
2022/09/03 10:38:27;;;;;;;3.40;2.60;;;28.50;39.00;;;;;;20610;6869;117379;-88
2022/09/03 10:41:16;;;;;;;2.87;2.67;;;28.30;39.10;;;;;;19572;7226;129552;-89
2022/09/03 10:44:11;;;;;;;3.17;2.87;;;28.10;39.80;;;;;;19377;7226;321924;-90
2022/09/03 10:46:43;;;;;;;2.60;2.50;;;28.20;40.20;;;;;;19968;6875;120144;-91
2022/09/03 10:49:22;;;;;;;2.70;2.57;;;28.20;40.00;;;;;;20607;6860;117533;-88
2022/09/03 10:52:24;;;;;;;3.27;3.07;;;28.00;40.30;;;;;;20660;6857;123105;-90
2022/09/03 10:54:52;;;;;;;2.97;2.87;;;27.80;40.40;;;;;;20664;6857;117722;-87
2022/09/03 10:57:25;;;;;;;3.03;2.83;;;27.60;40.40;;;;;;20429;6857;308556;-89
2022/09/03 11:00:10;;;;;;;3.33;3.13;;;27.80;40.70;;;;;;20479;6857;298844;-87
2022/09/03 11:02:45;;;;;;;2.80;2.70;;;28.20;40.40;;;;;;20432;6857;338392;-87
2022/09/03 11:05:15;;;;;;;2.80;2.67;;;28.40;40.00;;;;;;20469;6855;309039;-89
2022/09/03 11:07:50;;;;;;;2.53;2.40;;;28.70;39.30;;;;;;20666;6856;122111;-87
2022/09/03 11:10:29;;;;;;;2.57;2.40;;;28.60;39.50;;;;;;20678;6857;117800;-87
2022/09/03 11:13:18;;;;;;;2.53;2.43;;;28.30;39.90;;;;;;20663;6857;141398;-86
2022/09/03 11:15:53;;;;;;;3.03;2.83;;;27.90;40.10;;;;;;20680;6857;117250;-86
2022/09/03 11:18:43;;;;;;;3.07;2.83;;;27.70;40.30;;;;;;20412;6857;118671;-85
2022/09/03 11:21:10;;;;;;;2.70;2.60;;;27.50;40.50;;;;;;20668;6857;118991;-88
2022/09/03 11:23:36;;;;;;;2.90;2.80;;;27.00;40.80;;;;;;20676;6857;117561;-86
2022/09/03 11:26:02;;;;;;;3.07;2.97;;;27.00;40.80;;;;;;20667;6857;117395;-87
2022/09/03 11:28:50;;;;;;;3.10;2.90;;;26.90;41.10;;;;;;20450;6857;311185;-85
2022/09/03 11:31:24;;;;;;;3.20;3.00;;;27.00;41.90;;;;;;20482;6857;301341;-87
2022/09/03 11:33:55;;;;;;;3.30;3.00;;;27.20;43.30;;;;;;20657;6857;120384;-86
2022/09/03 11:36:31;;;;;;;3.50;3.30;;;26.90;43.50;;;;;;20467;6857;306350;-87
2022/09/03 11:38:56;;;;;;;3.43;3.23;;;26.80;46.00;;;;;;20667;6857;118731;-89
2022/09/03 11:41:26;;;;;;;3.67;3.30;;;26.10;46.70;;;;;;20679;6857;117374;-87
2022/09/03 11:43:53;;;;;;;3.73;3.43;;;26.00;46.60;;;;;;20674;6857;117713;-85
2022/09/03 11:46:23;;;;;;;3.42;3.22;;;25.70;47.40;;;;;;20459;6857;336744;-85
2022/09/03 11:48:49;;;;;;;4.07;3.37;;;25.80;49.30;;;;;;20635;6857;117294;-85
2022/09/03 11:51:28;;;;;;;3.65;3.45;;;25.60;48.60;;;;;;20483;6857;310382;-87
2022/09/03 11:53:52;;;;;;;3.63;2.70;;;25.30;50.00;;;;;;20686;6857;117241;-86
2022/09/03 11:56:19;;;;;;;3.40;2.33;;;25.20;49.90;;;;;;20468;6857;307791;-88
2022/09/03 11:58:44;;;;;;;6.27;2.20;;;25.00;49.90;;;;;;20657;6857;128067;-86
2022/09/03 12:01:10;;;;;;;2.73;1.37;;;24.60;49.70;;;;;;20661;6857;117875;-84
2022/09/03 12:03:46;;;;;;;1.55;1.25;;;24.00;49.50;;;;;;20621;6857;117819;-86
2022/09/03 12:06:22;;;;;;;1.50;1.40;;;23.50;49.60;;;;;;20454;6857;308562;-86
2022/09/03 12:09:07;;;;;;;2.63;1.60;;;23.30;50.10;;;;;;20465;6857;306572;-86
2022/09/03 12:11:55;;;;;;;1.57;1.40;;;23.30;50.00;;;;;;20693;6857;117478;-85
2022/09/03 12:14:30;;;;;;;1.77;1.60;;;22.80;50.00;;;;;;20466;6857;308552;-85
2022/09/03 12:16:59;;;;;;;2.07;1.63;;;22.70;51.40;;;;;;20433;6855;308364;-86
2022/09/03 12:19:41;;;;;;;1.27;1.17;;;22.80;51.60;;;;;;20702;6856;117829;-86
2022/09/03 12:22:13;;;;;;;2.15;1.40;;;22.50;51.60;;;;;;20482;6857;338635;-86
2022/09/03 12:24:42;;;;;;;3.03;1.60;;;22.40;52.70;;;;;;20644;6857;120586;-86
2022/09/03 12:27:04;;;;;;;2.20;1.60;;;22.20;52.60;;;;;;20464;6857;307808;-87
2022/09/03 12:29:32;;;;;;;4.20;1.85;;;22.20;53.80;;;;;;20476;6857;302638;-87
2022/09/03 12:32:05;;;;;;;2.77;1.50;;;22.30;54.40;;;;;;20684;6857;118081;-87
2022/09/03 12:34:31;;;;;;;2.33;1.80;;;22.10;54.00;;;;;;20466;6857;307687;-87
2022/09/03 12:36:56;;;;;;;2.77;1.90;;;22.10;55.20;;;;;;20437;6857;308140;-87
2022/09/03 12:39:26;;;;;;;1.63;1.40;;;22.00;54.90;;;;;;20687;6857;117941;-87
2022/09/03 12:42:05;;;;;;;2.42;1.55;;;21.90;55.40;;;;;;20462;6857;300824;-86
2022/09/03 12:44:31;;;;;;;2.08;1.40;;;21.90;55.40;;;;;;20467;6857;307196;-87
2022/09/03 12:47:00;;;;;;;2.60;1.50;;;22.10;55.60;;;;;;20635;6857;117221;-87
2022/09/03 12:49:25;;;;;;;1.60;1.50;;;21.90;55.20;;;;;;20650;6857;120450;-86
2022/09/03 12:51:53;;;;;;;1.50;1.40;;;21.20;55.50;;;;;;20693;6857;117224;-86
2022/09/03 12:54:17;;;;;;;2.30;1.73;;;21.20;55.50;;;;;;20652;6857;117815;-87
2022/09/03 12:56:46;;;;;;;2.30;1.87;;;21.20;56.40;;;;;;20465;6857;333850;-85
2022/09/03 12:59:12;;;;;;;2.92;2.00;;;21.20;56.50;;;;;;20455;6857;342502;-87
2022/09/03 13:01:45;;;;;;;1.87;1.70;;;21.80;55.30;;;;;;20471;6857;278571;-86
2022/09/03 13:04:10;;;;;;;4.53;1.60;;;21.90;55.40;;;;;;20674;6857;117548;-87
2022/09/03 13:07:09;;;;;;;1.60;1.50;;;21.70;55.40;;;;;;20463;6857;316138;-86
2022/09/03 13:09:35;;;;;;;1.90;1.80;;;21.80;57.30;;;;;;20699;6857;117350;-88
2022/09/03 13:12:04;;;;;;;3.10;1.70;;;21.40;57.40;;;;;;20657;6857;121596;-88
2022/09/03 13:14:27;;;;;;;2.20;1.60;;;21.40;57.50;;;;;;20682;6857;120596;-88
2022/09/03 13:16:59;;;;;;;2.65;1.80;;;21.30;58.00;;;;;;20669;6857;123596;-90
2022/09/03 13:19:42;;;;;;;2.63;1.50;;;21.10;58.40;;;;;;20654;6857;117417;-89
2022/09/03 13:22:11;;;;;;;1.87;1.70;;;21.10;58.80;;;;;;20455;6857;310588;-87
2022/09/03 13:24:57;;;;;;;1.87;1.77;;;21.40;59.70;;;;;;20673;6857;117371;-91
2022/09/03 13:27:28;;;;;;;1.70;1.60;;;21.60;59.20;;;;;;20698;6856;117291;-89